Time;durP1;ratioP1;P1;durP2;ratioP2;P2;SDS_P1;SDS_P2;PMS_P1;PMS_P2;Temp;Humidity;BMP_temperature;BMP_pressure;BME280_temperature;BME280_humidity;BME280_pressure;Samples;Min_cycle;Max_cycle;Signal;HPM_P1;HPM_P2
2022/12/06 00:02:00;;;;;;;34.40;22.50;;;;;;;2.46;86.78;100747.30;101968;1313;88209;-54
2022/12/06 00:04:39;;;;;;;39.20;23.10;;;;;;;2.48;86.82;100747.35;101992;1314;94301;-53
2022/12/06 00:07:13;;;;;;;34.20;22.20;;;;;;;2.47;86.98;100752.39;101978;1314;81042;-57
2022/12/06 00:09:48;;;;;;;35.60;23.30;;;;;;;2.52;86.95;100753.91;101977;1315;83472;-57
2022/12/06 00:12:24;;;;;;;34.40;23.20;;;;;;;2.53;86.85;100749.77;102012;1313;96280;-56
2022/12/06 00:14:58;;;;;;;37.30;23.20;;;;;;;2.52;86.98;100747.17;102031;1311;87650;-56
2022/12/06 00:17:36;;;;;;;34.20;22.40;;;;;;;2.50;87.11;100741.27;102014;1312;95661;-58
2022/12/06 00:20:13;;;;;;;36.20;23.60;;;;;;;2.49;87.14;100740.70;101969;1314;80669;-58
2022/12/06 00:22:49;;;;;;;39.30;24.60;;;;;;;2.45;87.19;100740.67;102021;1311;83039;-57
2022/12/06 00:25:24;;;;;;;36.40;23.50;;;;;;;2.45;87.33;100738.52;102011;1311;98655;-56
2022/12/06 00:28:01;;;;;;;33.50;22.70;;;;;;;2.44;87.34;100736.11;101977;1314;88458;-56
2022/12/06 00:30:33;;;;;;;;;;;;;;;2.46;87.35;100736.15;101994;1313;95711;-57
2022/12/06 00:33:07;;;;;;;38.50;23.90;;;;;;;2.46;87.39;100729.71;101979;1314;80327;-58
2022/12/06 00:35:44;;;;;;;34.50;24.00;;;;;;;2.52;87.44;100730.77;101590;1314;542595;-58
2022/12/06 00:38:18;;;;;;;33.10;22.10;;;;;;;2.54;87.39;100727.09;101948;1313;96575;-57
2022/12/06 00:41:02;;;;;;;35.90;23.80;;;;;;;2.50;87.49;100728.87;101976;1314;87762;-57
2022/12/06 00:43:40;;;;;;;34.50;23.20;;;;;;;2.47;87.51;100728.57;101998;1313;95209;-58
2022/12/06 00:46:20;;;;;;;37.10;24.60;;;;;;;2.45;87.78;100730.91;101950;1314;81549;-57
2022/12/06 00:48:55;;;;;;;35.80;22.80;;;;;;;2.43;87.77;100728.90;101986;1315;83084;-57
2022/12/06 00:51:32;;;;;;;34.30;23.20;;;;;;;2.41;87.68;100720.71;101949;1313;98405;-54
2022/12/06 00:54:08;;;;;;;33.50;21.90;;;;;;;2.40;88.00;100713.70;101961;1314;89049;-58
2022/12/06 00:56:44;;;;;;;35.60;23.00;;;;;;;2.40;87.83;100714.98;101995;1313;94932;-58
2022/12/06 00:59:23;;;;;;;32.90;22.80;;;;;;;2.38;87.85;100715.32;101975;1311;79631;-57
2022/12/06 01:02:00;;;;;;;35.60;24.70;;;;;;;2.35;88.01;100710.00;102025;1311;81831;-57
2022/12/06 01:04:42;;;;;;;32.80;23.00;;;;;;;2.36;88.23;100703.76;101986;1311;98319;-56
2022/12/06 01:07:16;;;;;;;34.20;22.70;;;;;;;2.36;88.25;100707.23;101874;1317;88902;-58
2022/12/06 01:09:50;;;;;;;33.90;22.80;;;;;;;2.38;88.26;100706.36;101985;1313;95192;-52
2022/12/06 01:12:25;;;;;;;35.60;23.10;;;;;;;2.39;88.24;100698.89;101975;1313;81470;-58
2022/12/06 01:14:58;;;;;;;;;;;;;;;2.39;88.16;100694.80;101975;1311;83272;-58
2022/12/06 01:17:36;;;;;;;34.00;22.70;;;;;;;2.38;88.36;100692.04;101965;1313;98937;-56
2022/12/06 01:20:18;;;;;;;38.60;23.80;;;;;;;2.28;88.53;100689.65;101953;1311;89663;-58
2022/12/06 01:22:53;;;;;;;38.00;24.10;;;;;;;2.29;88.69;100683.40;101975;1312;93490;-57
2022/12/06 01:25:31;;;;;;;41.60;25.30;;;;;;;2.31;88.61;100676.25;101963;1313;78767;-58
2022/12/06 01:28:08;;;;;;;35.90;23.70;;;;;;;2.36;88.55;100676.92;101981;1313;81905;-59
2022/12/06 01:30:44;;;;;;;38.70;25.50;;;;;;;2.37;88.57;100667.96;101975;1311;98394;-52
2022/12/06 01:33:22;;;;;;;34.30;24.00;;;;;;;2.39;88.63;100666.88;101968;1314;89214;-58
2022/12/06 01:35:57;;;;;;;36.90;24.40;;;;;;;2.42;88.51;100666.98;101939;1311;95577;-57
2022/12/06 01:38:29;;;;;;;;;;;;;;;2.40;88.55;100667.14;101992;1314;78862;-56
2022/12/06 01:41:04;;;;;;;41.30;26.10;;;;;;;2.42;88.92;100663.75;101975;1310;82377;-58
2022/12/06 01:43:41;;;;;;;43.90;27.00;;;;;;;2.42;88.63;100665.19;101903;1315;97835;-57
2022/12/06 01:46:28;;;;;;;35.10;23.30;;;;;;;2.42;88.77;100666.48;101982;1313;88898;-58
2022/12/06 01:49:22;;;;;;;37.30;23.80;;;;;;;2.42;88.65;100660.89;101957;1313;95458;-57
2022/12/06 01:52:02;;;;;;;39.30;25.70;;;;;;;2.42;88.75;100663.11;101966;1313;80842;-58
2022/12/06 01:54:40;;;;;;;39.70;26.40;;;;;;;2.39;88.78;100656.72;102029;1313;82282;-59
2022/12/06 01:57:17;;;;;;;37.90;24.20;;;;;;;2.39;88.80;100652.67;101984;1313;98424;-57
2022/12/06 01:59:51;;;;;;;36.20;24.30;;;;;;;2.41;88.75;100652.44;101988;1314;88949;-57
2022/12/06 02:02:25;;;;;;;38.00;24.80;;;;;;;2.43;88.72;100646.30;101967;1314;92879;-59
2022/12/06 02:05:01;;;;;;;41.20;25.20;;;;;;;2.42;88.82;100649.78;101957;1314;81963;-59
2022/12/06 02:07:36;;;;;;;39.20;24.90;;;;;;;2.42;88.83;100648.88;101995;1314;82752;-52
2022/12/06 02:10:19;;;;;;;35.90;24.80;;;;;;;2.40;88.87;100642.06;101950;1313;98736;-57
2022/12/06 02:12:58;;;;;;;39.90;25.60;;;;;;;2.41;88.92;100641.70;101945;1311;89385;-55
2022/12/06 02:15:50;;;;;;;36.60;24.60;;;;;;;2.39;88.84;100635.39;101988;1313;95706;-59
2022/12/06 02:18:37;;;;;;;40.50;26.90;;;;;;;2.33;88.93;100637.16;101928;1315;80294;-59
2022/12/06 02:21:24;;;;;;;37.90;23.70;;;;;;;2.35;89.01;100634.84;101931;1313;81902;-57
2022/12/06 02:24:28;;;;;;;;;;;;;;;2.34;89.09;100634.39;102023;1311;99351;-60
2022/12/06 02:27:30;;;;;;;40.30;24.80;;;;;;;2.36;89.08;100631.91;102022;1313;89384;-56
2022/12/06 02:30:19;;;;;;;38.90;25.10;;;;;;;2.43;89.00;100626.05;101990;1313;95562;-56
2022/12/06 02:33:06;;;;;;;43.60;24.50;;;;;;;2.40;89.21;100627.54;102041;1314;81751;-59
2022/12/06 02:35:48;;;;;;;39.40;26.00;;;;;;;2.37;89.09;100627.45;101989;1315;81980;-58
2022/12/06 02:38:31;;;;;;;39.80;25.30;;;;;;;2.41;89.00;100623.73;102026;1313;99714;-55
2022/12/06 02:41:15;;;;;;;38.20;23.70;;;;;;;2.39;88.99;100619.40;102001;1311;89391;-58
2022/12/06 02:43:57;;;;;;;35.80;24.20;;;;;;;2.42;89.04;100616.70;101990;1314;94416;-58
2022/12/06 02:46:37;;;;;;;41.50;25.60;;;;;;;2.42;89.00;100612.63;101982;1312;81163;-58
2022/12/06 02:49:13;;;;;;;37.60;24.50;;;;;;;2.40;89.03;100605.33;101974;1311;81335;-58
2022/12/06 02:51:49;;;;;;;37.30;24.40;;;;;;;2.42;89.21;100605.53;101971;1313;97807;-57
2022/12/06 02:54:27;;;;;;;37.30;24.80;;;;;;;2.37;89.14;100598.23;101956;1314;89420;-57
2022/12/06 02:57:01;;;;;;;40.80;25.10;;;;;;;2.37;89.32;100591.30;102025;1315;95242;-58
2022/12/06 02:59:40;;;;;;;40.40;25.90;;;;;;;2.39;89.30;100587.47;101944;1314;80354;-59
2022/12/06 03:02:14;;;;;;;39.50;24.00;;;;;;;2.39;89.28;100585.45;101977;1313;82648;-59
2022/12/06 03:05:08;;;;;;;38.90;24.10;;;;;;;2.43;89.23;100578.18;102016;1314;99239;-59
2022/12/06 03:07:48;;;;;;;40.50;25.70;;;;;;;2.48;89.18;100578.52;101992;1313;87863;-56
2022/12/06 03:10:42;;;;;;;40.40;25.50;;;;;;;2.54;89.10;100580.92;101992;1313;95047;-58
2022/12/06 03:13:24;;;;;;;41.80;25.20;;;;;;;2.51;89.03;100572.13;102063;1311;77938;-57
2022/12/06 03:16:03;;;;;;;;;;;;;;;2.51;89.19;100571.45;102054;1314;84061;-58
2022/12/06 03:18:48;;;;;;;40.00;25.40;;;;;;;2.49;89.36;100569.67;101960;1313;98300;-57
2022/12/06 03:21:29;;;;;;;40.10;24.70;;;;;;;2.49;89.38;100571.43;102031;1313;86760;-57
2022/12/06 03:24:10;;;;;;;32.90;20.90;;;;;;;2.53;89.13;100577.99;101940;1313;95384;-58
2022/12/06 03:26:47;;;;;;;39.30;24.30;;;;;;;2.48;89.22;100573.65;101990;1312;79963;-59
2022/12/06 03:29:26;;;;;;;42.50;24.50;;;;;;;2.44;89.45;100573.17;101982;1314;83669;-59
2022/12/06 03:32:06;;;;;;;43.30;25.00;;;;;;;2.45;89.18;100568.45;102002;1313;98870;-57
2022/12/06 03:34:46;;;;;;;39.10;24.50;;;;;;;2.40;89.50;100564.91;101973;1311;88895;-56
2022/12/06 03:37:27;;;;;;;35.30;24.10;;;;;;;2.45;89.26;100560.45;101984;1314;93791;-55
2022/12/06 03:40:13;;;;;;;40.80;25.10;;;;;;;2.49;89.34;100560.20;101967;1311;82007;-55
2022/12/06 03:42:49;;;;;;;40.90;25.30;;;;;;;2.47;89.42;100559.51;101985;1310;83351;-58
2022/12/06 03:45:30;;;;;;;38.70;25.50;;;;;;;2.47;89.42;100561.38;101873;1314;98406;-58
2022/12/06 03:48:13;;;;;;;40.30;24.60;;;;;;;2.49;89.44;100563.09;101976;1311;89266;-57
2022/12/06 03:50:54;;;;;;;40.10;25.30;;;;;;;2.50;89.32;100563.50;101953;1313;94462;-57
2022/12/06 03:53:28;;;;;;;40.30;24.90;;;;;;;2.53;89.31;100563.79;102006;1314;80338;-58
2022/12/06 03:56:05;;;;;;;42.10;26.20;;;;;;;2.50;89.44;100556.09;102032;1314;82426;-55
2022/12/06 03:58:39;;;;;;;39.60;25.20;;;;;;;2.52;89.22;100554.52;101994;1311;96700;-56
2022/12/06 04:01:13;;;;;;;37.80;24.70;;;;;;;2.57;89.36;100551.05;101977;1313;89812;-58
2022/12/06 04:03:47;;;;;;;42.00;25.60;;;;;;;2.59;89.20;100548.70;101977;1313;95085;-57
2022/12/06 04:06:21;;;;;;;46.70;26.40;;;;;;;2.54;89.26;100545.91;101967;1313;81690;-58
2022/12/06 04:09:51;;;;;;;40.90;25.70;;;;;;;2.49;89.53;100539.13;101944;1310;83386;-58
2022/12/06 04:11:51;;;;;;;40.90;24.90;;;;;;;2.54;89.34;100538.63;101969;1313;99209;-57
2022/12/06 04:14:31;;;;;;;44.20;25.00;;;;;;;2.57;89.49;100536.10;101972;1313;87465;-51
2022/12/06 04:19:59;;;;;;;40.10;25.50;;;;;;;2.53;89.59;100536.57;101813;1313;80435;-57
2022/12/06 04:25:30;;;;;;;37.30;24.10;;;;;;;2.55;89.53;100531.83;101970;1314;98603;-55
2022/12/06 04:39:42;;;;;;;40.50;24.90;;;;;;;2.50;89.60;100516.98;101958;1313;98756;-62
2022/12/06 04:45:22;;;;;;;36.10;22.50;;;;;;;2.50;89.65;100526.38;101964;1313;94113;-57
2022/12/06 04:47:59;;;;;;;37.30;22.60;;;;;;;2.46;89.90;100524.05;102053;1314;80055;-56
2022/12/06 04:50:34;;;;;;;40.40;22.80;;;;;;;2.44;89.92;100519.50;102036;1310;84069;-58
2022/12/06 04:53:11;;;;;;;38.50;23.20;;;;;;;2.44;89.98;100513.08;101972;1311;98090;-57
2022/12/06 04:55:51;;;;;;;39.60;24.40;;;;;;;2.47;89.98;100515.44;101885;1317;87305;-57
2022/12/06 04:58:26;;;;;;;37.70;21.20;;;;;;;2.49;89.70;100512.08;101993;1314;94450;-53
2022/12/06 05:01:02;;;;;;;40.20;23.30;;;;;;;2.45;89.87;100514.54;102002;1313;80256;-56
2022/12/06 05:03:36;;;;;;;38.40;23.30;;;;;;;2.47;89.80;100512.41;101959;1313;81948;-57
2022/12/06 05:06:10;;;;;;;;;;;;;;;2.52;89.89;100507.59;102022;1313;99075;-59
2022/12/06 05:08:44;;;;;;;37.70;21.50;;;;;;;2.48;89.87;100505.23;101988;1310;89351;-58
2022/12/06 05:11:22;;;;;;;39.10;22.30;;;;;;;2.45;90.13;100502.31;101987;1310;93428;-57
2022/12/06 05:14:02;;;;;;;37.60;21.80;;;;;;;2.47;90.03;100497.39;102009;1310;79994;-58
2022/12/06 05:16:35;;;;;;;39.10;23.50;;;;;;;2.45;90.11;100495.02;102020;1314;83137;-59
2022/12/06 05:19:11;;;;;;;39.90;23.50;;;;;;;2.44;90.14;100494.60;102010;1313;99561;-56
2022/12/06 05:21:46;;;;;;;40.40;23.40;;;;;;;2.48;90.26;100491.00;102073;1313;87620;-57
2022/12/06 05:24:19;;;;;;;39.30;23.40;;;;;;;2.50;90.13;100491.39;102066;1313;94676;-56
2022/12/06 05:26:55;;;;;;;36.20;22.90;;;;;;;2.51;90.29;100483.63;102047;1313;81268;-58
2022/12/06 05:29:33;;;;;;;36.80;22.90;;;;;;;2.52;90.33;100480.54;102027;1313;81093;-58
2022/12/06 05:32:08;;;;;;;38.70;23.20;;;;;;;2.53;90.30;100476.00;102051;1313;99644;-59
2022/12/06 05:34:42;;;;;;;40.10;23.20;;;;;;;2.56;90.32;100471.23;102032;1309;88571;-60
2022/12/06 05:37:16;;;;;;;37.90;22.30;;;;;;;2.60;90.09;100464.32;101974;1310;96127;-59
2022/12/06 05:39:53;;;;;;;39.90;23.30;;;;;;;2.52;90.26;100464.58;102004;1310;81443;-60
2022/12/06 05:42:29;;;;;;;38.50;22.20;;;;;;;2.49;90.43;100464.23;101966;1310;83138;-58
2022/12/06 05:45:08;;;;;;;37.80;21.40;;;;;;;2.52;90.33;100466.00;101979;1313;97434;-57
2022/12/06 05:47:44;;;;;;;37.70;21.60;;;;;;;2.58;90.32;100465.07;101997;1313;88008;-59
2022/12/06 05:50:19;;;;;;;37.90;20.50;;;;;;;2.58;90.20;100462.58;101973;1313;94449;-60
2022/12/06 05:52:57;;;;;;;37.80;20.90;;;;;;;2.54;90.10;100462.55;102045;1310;79984;-55
2022/12/06 05:55:33;;;;;;;37.00;21.20;;;;;;;2.51;90.40;100459.27;101995;1310;80872;-58
2022/12/06 05:58:09;;;;;;;37.20;20.50;;;;;;;2.53;90.37;100457.14;101995;1313;98201;-60
2022/12/06 06:00:46;;;;;;;35.50;20.10;;;;;;;2.53;90.23;100456.77;101998;1313;87843;-62
2022/12/06 06:03:21;;;;;;;32.40;20.70;;;;;;;2.54;90.33;100454.39;102021;1313;95192;-59
2022/12/06 06:05:58;;;;;;;37.70;20.90;;;;;;;2.53;90.34;100454.70;102020;1310;81451;-59
2022/12/06 06:08:37;;;;;;;35.70;19.90;;;;;;;2.56;90.43;100451.73;102041;1313;83083;-58
2022/12/06 06:11:11;;;;;;;35.80;22.10;;;;;;;2.55;90.32;100445.23;102017;1310;97758;-57
2022/12/06 06:13:45;;;;;;;33.10;20.50;;;;;;;2.55;90.34;100450.27;102069;1313;88998;-56
2022/12/06 06:16:19;;;;;;;32.00;21.30;;;;;;;2.60;90.28;100447.64;102023;1313;95562;-60
2022/12/06 06:19:02;;;;;;;35.00;20.70;;;;;;;2.61;90.12;100457.33;102004;1310;81368;-55
2022/12/06 06:21:42;;;;;;;36.20;20.50;;;;;;;2.63;90.30;100461.76;102045;1313;83474;-56
2022/12/06 06:24:18;;;;;;;32.00;20.40;;;;;;;2.64;90.14;100467.38;101784;1316;99469;-57
2022/12/06 06:26:52;;;;;;;34.60;20.70;;;;;;;2.68;90.41;100468.57;101978;1313;89274;-58
2022/12/06 06:29:31;;;;;;;33.70;20.40;;;;;;;2.67;90.18;100469.06;101980;1313;95588;-58
2022/12/06 06:32:05;;;;;;;31.00;19.50;;;;;;;2.68;90.22;100467.48;102009;1309;80309;-59
2022/12/06 06:34:39;;;;;;;28.90;19.60;;;;;;;2.70;90.40;100460.42;101992;1313;81814;-57
2022/12/06 06:37:13;;;;;;;33.20;21.40;;;;;;;2.69;90.45;100461.21;101998;1313;99044;-58
2022/12/06 06:39:50;;;;;;;31.50;19.70;;;;;;;2.69;90.35;100465.85;101991;1313;87639;-57
2022/12/06 06:42:27;;;;;;;29.70;18.90;;;;;;;2.77;90.22;100465.67;101878;1315;95140;-57
2022/12/06 06:45:08;;;;;;;31.40;20.00;;;;;;;2.70;90.33;100463.73;102021;1314;81112;-57
2022/12/06 06:47:43;;;;;;;33.90;19.70;;;;;;;2.73;90.22;100462.62;102066;1313;80623;-57
2022/12/06 06:50:20;;;;;;;28.60;18.00;;;;;;;2.71;90.27;100458.38;102036;1314;98204;-56
2022/12/06 06:52:54;;;;;;;33.40;19.70;;;;;;;2.75;90.21;100453.92;102048;1314;89591;-58
2022/12/06 06:55:31;;;;;;;34.00;20.30;;;;;;;2.81;90.11;100450.99;102050;1311;93092;-57
2022/12/06 06:58:03;;;;;;;;;;;;;;;2.87;90.02;100446.88;102066;1314;78721;-57
2022/12/06 07:00:40;;;;;;;32.30;20.80;;;;;;;2.86;90.10;100446.81;102000;1314;83063;-55
2022/12/06 07:03:15;;;;;;;;;;;;;;;2.90;90.10;100449.63;102071;1310;98032;-56
2022/12/06 07:05:55;;;;;;;37.50;21.50;;;;;;;2.87;90.04;100449.95;101922;1313;88123;-55
2022/12/06 07:08:31;;;;;;;33.60;21.80;;;;;;;2.80;90.36;100447.17;101964;1310;94036;-55
2022/12/06 07:11:08;;;;;;;33.00;21.80;;;;;;;2.76;90.20;100444.02;102005;1313;80357;-58
2022/12/06 07:13:47;;;;;;;32.80;20.90;;;;;;;2.70;90.39;100442.42;101982;1313;83068;-58
2022/12/06 07:16:23;;;;;;;32.40;20.10;;;;;;;2.66;90.19;100444.77;101983;1313;97976;-57
2022/12/06 07:18:59;;;;;;;29.80;18.70;;;;;;;2.64;90.47;100443.21;102008;1314;89282;-59
2022/12/06 07:21:35;;;;;;;31.20;18.90;;;;;;;2.64;90.38;100436.81;101985;1313;92758;-56
2022/12/06 07:24:12;;;;;;;29.80;18.70;;;;;;;2.67;90.24;100433.14;102033;1314;81657;-57
2022/12/06 07:26:46;;;;;;;27.20;18.10;;;;;;;2.67;90.43;100433.81;102027;1313;83668;-57
2022/12/06 07:29:23;;;;;;;27.90;19.80;;;;;;;2.67;90.51;100436.14;102011;1313;98865;-56
2022/12/06 07:32:00;;;;;;;27.20;18.60;;;;;;;2.63;90.57;100438.48;102031;1310;87849;-58
2022/12/06 07:34:34;;;;;;;28.60;18.30;;;;;;;2.64;90.61;100437.84;102040;1313;94035;-52
2022/12/06 07:37:10;;;;;;;30.90;20.70;;;;;;;2.62;90.61;100435.88;101996;1314;80714;-59
2022/12/06 07:39:48;;;;;;;27.90;18.00;;;;;;;2.63;90.64;100438.33;102101;1311;81831;-59
2022/12/06 07:45:22;;;;;;;26.40;17.40;;;;;;;2.75;90.55;100424.58;102008;1313;88374;-59
2022/12/06 07:47:58;;;;;;;26.50;17.20;;;;;;;2.75;90.55;100419.23;101970;1310;94348;-57
2022/12/06 07:50:32;;;;;;;24.90;17.10;;;;;;;2.76;90.59;100412.15;102013;1313;81385;-59
2022/12/06 07:53:07;;;;;;;27.80;18.20;;;;;;;2.82;90.44;100412.69;101975;1314;81173;-58
2022/12/06 07:55:43;;;;;;;26.80;18.40;;;;;;;2.78;90.76;100410.77;101990;1310;98360;-58
2022/12/06 07:58:18;;;;;;;28.50;18.10;;;;;;;2.84;90.70;100410.89;102017;1313;87411;-58
2022/12/06 08:00:55;;;;;;;25.30;19.10;;;;;;;2.85;90.76;100412.10;102000;1313;92678;-58
2022/12/06 08:03:27;;;;;;;;;;;;;;;2.88;90.75;100406.80;102044;1314;81070;-58
2022/12/06 08:06:02;;;;;;;27.20;18.50;;;;;;;2.88;90.78;100412.49;102014;1310;83244;-59
2022/12/06 08:08:36;;;;;;;;;;;;;;;2.86;90.73;100413.20;102049;1311;98351;-60
2022/12/06 08:11:10;;;;;;;26.80;17.50;;;;;;;2.88;90.84;100411.27;102031;1314;88874;-56
2022/12/06 08:13:44;;;;;;;27.30;18.70;;;;;;;2.91;90.64;100415.05;102026;1313;95802;-53
2022/12/06 08:16:22;;;;;;;27.30;18.60;;;;;;;2.93;90.62;100417.91;102000;1314;81849;-58
2022/12/06 08:18:57;;;;;;;23.30;17.00;;;;;;;2.97;90.72;100417.69;101941;1311;83059;-58
2022/12/06 08:21:33;;;;;;;27.70;16.90;;;;;;;2.95;90.75;100414.52;101972;1310;99116;-60
2022/12/06 08:24:11;;;;;;;26.20;17.50;;;;;;;2.97;90.74;100417.55;101984;1313;88953;-58
2022/12/06 08:26:45;;;;;;;23.40;16.90;;;;;;;2.96;90.42;100411.92;101968;1310;95020;-58
2022/12/06 08:29:19;;;;;;;23.60;17.10;;;;;;;2.98;90.45;100404.27;101988;1314;81688;-58
2022/12/06 08:31:55;;;;;;;22.80;16.50;;;;;;;2.93;90.58;100403.14;102066;1313;81667;-60
2022/12/06 08:34:32;;;;;;;25.10;16.60;;;;;;;2.91;90.52;100410.27;102045;1311;98442;-59
2022/12/06 08:37:07;;;;;;;25.50;16.80;;;;;;;2.92;90.37;100414.83;101626;1313;591034;-60
2022/12/06 08:39:41;;;;;;;26.70;18.30;;;;;;;2.89;90.51;100414.57;102035;1310;93096;-61
2022/12/06 08:42:17;;;;;;;25.30;17.70;;;;;;;2.85;90.48;100412.77;101972;1313;80606;-57
2022/12/06 08:44:54;;;;;;;25.30;18.10;;;;;;;2.82;90.67;100410.36;101992;1311;81448;-58
2022/12/06 08:47:27;;;;;;;28.60;19.70;;;;;;;2.81;90.52;100409.81;102008;1310;96149;-58
2022/12/06 08:50:02;;;;;;;27.70;18.10;;;;;;;2.83;90.46;100405.53;101987;1313;89376;-57
2022/12/06 08:52:38;;;;;;;26.60;18.90;;;;;;;2.92;90.39;100406.04;101998;1313;93841;-59
2022/12/06 08:55:16;;;;;;;27.70;19.50;;;;;;;2.94;90.36;100410.86;101945;1314;80613;-60
2022/12/06 08:57:50;;;;;;;26.30;18.90;;;;;;;2.95;90.38;100410.39;101997;1313;83561;-59
2022/12/06 09:00:29;;;;;;;26.50;19.00;;;;;;;2.95;90.35;100409.31;101982;1313;98234;-59
2022/12/06 09:03:06;;;;;;;29.30;19.20;;;;;;;2.91;90.45;100405.11;101997;1313;88546;-56
2022/12/06 09:05:43;;;;;;;29.30;20.60;;;;;;;2.86;90.44;100397.91;101956;1313;95852;-60
2022/12/06 09:08:17;;;;;;;30.10;20.30;;;;;;;2.89;90.36;100391.05;102003;1313;81752;-60
2022/12/06 09:10:52;;;;;;;29.80;19.50;;;;;;;2.92;90.63;100388.09;102058;1310;83294;-60
2022/12/06 09:13:26;;;;;;;28.50;18.90;;;;;;;2.91;90.69;100383.60;102000;1310;99015;-61
2022/12/06 09:16:16;;;;;;;30.80;20.50;;;;;;;2.88;90.46;100377.11;102047;1310;87725;-59
2022/12/06 09:18:54;;;;;;;32.90;22.10;;;;;;;2.94;90.61;100381.69;101981;1310;95524;-61
2022/12/06 09:21:31;;;;;;;32.10;21.00;;;;;;;2.97;90.58;100383.91;101866;1317;83292;-61
2022/12/06 09:24:13;;;;;;;29.00;19.60;;;;;;;2.97;90.53;100380.85;101982;1313;82235;-61
2022/12/06 09:26:47;;;;;;;29.70;20.20;;;;;;;2.95;90.59;100382.50;102017;1313;98684;-58
2022/12/06 09:29:24;;;;;;;32.40;21.70;;;;;;;2.96;90.56;100379.19;102008;1310;88523;-59
2022/12/06 09:31:58;;;;;;;30.20;20.80;;;;;;;3.02;90.74;100374.64;102017;1309;94858;-60
2022/12/06 09:34:32;;;;;;;31.80;21.00;;;;;;;3.06;90.77;100375.08;102017;1313;79770;-59
2022/12/06 09:37:13;;;;;;;29.50;20.30;;;;;;;3.09;90.64;100371.84;102074;1310;80799;-59
2022/12/06 09:39:55;;;;;;;32.80;22.10;;;;;;;3.10;90.62;100366.86;102021;1310;99236;-59
2022/12/06 09:43:09;;;;;;;35.30;22.00;;;;;;;3.18;90.63;100363.85;102010;1313;90844;-57
2022/12/06 09:46:17;;;;;;;43.10;24.80;;;;;;;3.23;90.59;100350.02;101989;1310;94142;-58
2022/12/06 09:49:28;;;;;;;42.10;23.40;;;;;;;3.28;90.51;100343.15;101998;1310;81506;-58
2022/12/06 09:52:48;;;;;;;33.70;21.70;;;;;;;3.21;90.64;100346.09;102027;1310;81693;-58
2022/12/06 09:55:39;;;;;;;36.10;23.50;;;;;;;3.23;90.59;100342.48;101967;1309;97559;-58
2022/12/06 09:58:26;;;;;;;34.80;23.30;;;;;;;3.29;90.47;100339.80;102009;1310;89193;-57
2022/12/06 10:01:10;;;;;;;37.40;21.80;;;;;;;3.30;90.33;100340.05;101949;1311;93507;-58
2022/12/06 10:04:11;;;;;;;36.40;22.90;;;;;;;3.33;90.22;100329.52;101988;1310;79426;-58
2022/12/06 10:06:56;;;;;;;34.30;23.20;;;;;;;3.34;90.25;100326.53;102082;1313;82784;-61
2022/12/06 10:09:49;;;;;;;37.00;24.40;;;;;;;3.25;90.44;100321.12;102029;1313;96520;-57
2022/12/06 10:12:52;;;;;;;37.10;23.40;;;;;;;3.19;90.34;100314.32;102048;1313;88723;-60
2022/12/06 10:15:44;;;;;;;39.50;23.80;;;;;;;3.11;90.37;100305.40;102027;1310;94213;-61
2022/12/06 10:18:39;;;;;;;35.70;22.30;;;;;;;3.11;90.33;100305.83;101970;1313;81104;-58
2022/12/06 10:21:34;;;;;;;36.70;23.20;;;;;;;3.11;90.34;100303.45;102023;1313;80100;-60
2022/12/06 10:24:28;;;;;;;37.30;24.00;;;;;;;3.13;90.18;100291.31;101986;1313;99317;-59
2022/12/06 10:27:11;;;;;;;38.30;25.50;;;;;;;3.11;90.23;100283.72;101993;1313;88022;-54
2022/12/06 10:29:57;;;;;;;35.60;22.60;;;;;;;3.12;90.18;100279.16;102035;1311;94853;-56
2022/12/06 10:32:52;;;;;;;39.80;23.90;;;;;;;3.11;90.40;100273.19;101971;1311;80812;-59
2022/12/06 10:35:44;;;;;;;37.10;23.00;;;;;;;3.14;90.53;100276.31;102027;1310;81656;-60
2022/12/06 10:38:32;;;;;;;34.70;23.00;;;;;;;3.18;90.24;100274.88;101926;1317;97488;-53
2022/12/06 10:41:20;;;;;;;37.90;23.30;;;;;;;3.20;90.49;100269.28;102078;1313;88206;-58
2022/12/06 10:44:02;;;;;;;36.80;23.30;;;;;;;3.22;90.55;100273.08;101997;1313;95070;-53
2022/12/06 10:47:03;;;;;;;36.10;22.50;;;;;;;3.22;90.70;100267.70;102028;1314;81617;-59
2022/12/06 10:49:54;;;;;;;33.90;22.80;;;;;;;3.28;90.73;100263.73;102005;1313;80201;-61
2022/12/06 10:52:41;;;;;;;36.00;22.90;;;;;;;3.34;90.60;100261.77;102003;1313;99265;-56
2022/12/06 10:55:28;;;;;;;43.50;25.70;;;;;;;3.37;90.64;100257.16;101955;1313;87648;-55
2022/12/06 10:58:13;;;;;;;45.40;26.90;;;;;;;3.42;90.66;100249.75;101973;1313;92080;-59
2022/12/06 11:00:57;;;;;;;36.90;23.70;;;;;;;3.45;90.38;100242.69;101975;1314;80522;-56
2022/12/06 11:03:44;;;;;;;35.10;23.70;;;;;;;3.55;90.35;100241.77;102026;1314;83655;-56
2022/12/06 11:06:27;;;;;;;37.30;24.60;;;;;;;3.54;90.41;100240.05;102039;1314;99010;-58
2022/12/06 11:09:12;;;;;;;34.10;23.20;;;;;;;3.66;90.29;100235.29;101989;1313;87591;-57
2022/12/06 11:11:51;;;;;;;37.40;24.70;;;;;;;3.67;90.23;100236.66;102009;1314;95327;-58
2022/12/06 11:14:30;;;;;;;37.10;23.10;;;;;;;3.75;90.12;100234.05;102043;1314;80936;-58
2022/12/06 11:17:17;;;;;;;37.00;23.20;;;;;;;3.69;90.18;100231.95;102027;1313;82683;-59
2022/12/06 11:19:59;;;;;;;39.20;25.00;;;;;;;3.76;90.13;100227.73;102035;1313;97828;-61
2022/12/06 11:22:47;;;;;;;39.40;24.20;;;;;;;3.74;89.90;100227.59;102028;1311;88889;-57
2022/12/06 11:25:29;;;;;;;39.00;24.10;;;;;;;3.73;89.77;100224.62;102021;1314;94581;-58
2022/12/06 11:28:14;;;;;;;41.90;25.70;;;;;;;3.63;89.97;100222.23;101998;1311;79984;-60
2022/12/06 11:30:50;;;;;;;43.20;25.00;;;;;;;3.63;89.77;100219.53;101996;1313;80921;-60
2022/12/06 11:33:33;;;;;;;39.20;25.70;;;;;;;3.59;89.76;100215.86;101859;1313;98571;-59
2022/12/06 11:36:09;;;;;;;40.50;25.10;;;;;;;3.55;89.79;100218.00;101952;1313;88682;-53
2022/12/06 11:38:46;;;;;;;38.30;23.70;;;;;;;3.49;89.97;100219.69;102064;1313;95209;-55
2022/12/06 11:41:31;;;;;;;37.40;23.90;;;;;;;3.48;90.21;100218.52;101925;1311;81877;-59
2022/12/06 11:44:06;;;;;;;37.90;24.50;;;;;;;3.45;90.33;100214.91;102068;1311;81665;-59
2022/12/06 11:46:43;;;;;;;41.70;24.60;;;;;;;3.50;90.14;100216.40;101995;1314;99382;-58
2022/12/06 11:49:26;;;;;;;40.50;25.60;;;;;;;3.47;90.09;100211.30;101989;1313;89019;-59
2022/12/06 11:52:05;;;;;;;42.70;26.60;;;;;;;3.43;90.03;100208.31;102018;1313;95251;-59
2022/12/06 11:54:48;;;;;;;43.50;26.60;;;;;;;3.43;90.08;100204.23;101986;1313;80523;-60
2022/12/06 11:57:29;;;;;;;40.40;25.50;;;;;;;3.42;90.01;100204.70;102002;1313;80690;-58
2022/12/06 12:00:18;;;;;;;45.00;27.80;;;;;;;3.43;90.12;100207.08;101972;1313;98188;-58
2022/12/06 12:02:55;;;;;;;47.10;25.90;;;;;;;3.45;90.09;100204.73;101994;1313;89233;-58
2022/12/06 12:05:33;;;;;;;46.00;26.50;;;;;;;3.44;90.04;100200.24;102017;1314;94914;-56
2022/12/06 12:08:19;;;;;;;54.20;29.50;;;;;;;3.42;90.06;100198.00;101994;1313;81495;-59
2022/12/06 12:11:03;;;;;;;50.80;29.00;;;;;;;3.41;90.32;100193.56;101985;1313;82860;-54
2022/12/06 12:13:47;;;;;;;45.20;26.30;;;;;;;3.41;90.43;100189.30;102062;1313;98657;-58
2022/12/06 12:16:26;;;;;;;45.20;27.50;;;;;;;3.42;90.41;100184.46;102031;1310;88570;-56
2022/12/06 12:19:06;;;;;;;44.30;25.40;;;;;;;3.47;90.28;100188.00;102012;1313;95845;-58
2022/12/06 12:21:42;;;;;;;44.20;25.60;;;;;;;3.55;90.01;100185.77;102014;1313;81555;-58
2022/12/06 12:24:46;;;;;;;46.80;27.00;;;;;;;3.53;89.86;100181.83;102015;1313;82753;-57
2022/12/06 12:27:50;;;;;;;43.70;24.40;;;;;;;3.57;89.80;100180.84;101975;1313;99168;-60
2022/12/06 12:30:31;;;;;;;43.00;26.50;;;;;;;3.59;89.82;100176.17;101999;1311;87736;-59
2022/12/06 12:33:25;;;;;;;44.10;25.90;;;;;;;3.53;90.08;100169.84;101998;1314;93902;-57